METAR Data
IDs: Format: Raw Decoded Include TAF

Data at: 1223 UTC 23 Mar 2019

Region: TOP
KATL 231152Z 34007KT 10SM FEW200 FEW250 07/M01 A3019 RMK AO2 SLP225 T00671006 10106 20061 52022 $

KBOS 231154Z 28022G29KT 10SM FEW019 SCT045 OVC070 02/M03 A2941 RMK AO2 PK WND 29029/1144 SNE52 SLP958 P0000 60001 70046 T00221028 10028 20011 53049

KBWI 231154Z 28011G19KT 10SM FEW043 FEW250 02/M05 A2998 RMK AO2 PK WND 29028/1108 SLP152 T00221050 10028 20011 53031

KCLE 231151Z 31008KT 10SM BKN024 M02/M07 A3024 RMK AO2 SLP250 70007 T10171067 10000 21017 51019

KCLT 231152Z 33006KT 10SM CLR 06/M06 A3018 RMK AO2 SLP220 T00561056 10100 20011 51030

KCVG 231152Z 35003KT 10SM CLR M02/M05 A3027 RMK AO2 SLP254 T10171050 10017 21028 52016

KDCA 231152Z 29012G17KT 10SM FEW100 03/M06 A3003 RMK AO2 SLP170 70006 T00331061 10050 20028 51037 $

KDEN 231220Z 04009KT 10SM BKN007 OVC090 02/01 A2990 RMK AO2 T00220011

KDFW 231153Z 19008KT 10SM FEW055 BKN075 BKN150 OVC240 16/08 A3002 RMK AO2 SLP160 T01560083 10183 20156 53004

KDTW 231153Z 31003KT 10SM CLR M05/M09 A3026 RMK AO2 SLP254 70001 T10501089 11017 21050 53021

KEWR 231151Z 29019G30KT 10SM SCT037 BKN150 02/M06 A2975 RMK AO2 PK WND 30032/1105 SLP075 60000 T00221056 10028 20011 51030

KFLL 231153Z 36004KT 10SM FEW027 14/09 A3015 RMK AO2 SLP208 T01390094 10167 20133 53017

KIAD 231152Z 30021G28KT 10SM FEW110 01/M07 A3002 RMK AO2 PK WND 31028/1152 SLP167 70004 T00111072 10028 20006 53028

KIAH 231153Z 00000KT 10SM SCT070 OVC250 13/13 A3010 RMK AO2 SLP191 T01280128 10167 20128 53007

KJFK 231151Z 29024G35KT 10SM SCT039 BKN130 02/M05 A2974 RMK AO2 PK WND 31036/1059 SLP070 70004 T00171050 10033 20017 53031

KLAS 231156Z 17004KT 10SM FEW085 BKN220 13/01 A3003 RMK AO2 SLP159 T01280006 10156 20128 56005

KLAX 231153Z 22003KT 10SM BKN015 BKN170 14/11 A3014 RMK AO2 SLP203 T01390106 10139 20133 58006

KLGA 231151Z 29018G31KT 10SM FEW039 FEW095 BKN150 02/M06 A2972 RMK AO2 PK WND 29032/1105 SLP064 931000 60000 70006 T00171056 10028 20017 52029

KMCO 231153Z 35005KT 10SM CLR 11/09 A3017 RMK AO2 SLP216 T01060089 10128 20100 53021

KMDW 231153Z 00000KT 10SM FEW010 M03/M05 A3031 RMK AO2 SLP278 T10281050 10000 21028 53014

KMEM 231154Z 08008KT 10SM FEW002 SCT250 07/01 A3022 RMK AO2 SLP233 FU FEW002 T00670011 10083 20056 53020 $

KMIA 231153Z VRB04KT 10SM FEW050 15/09 A3016 RMK AO2 SLP211 T01500094 10172 20150 53018 $

KMSP 231153Z 11005KT 10SM CLR M02/M06 A3023 RMK AO2 SLP247 T10221061 10000 21033 52004

KORD 231151Z 00000KT 9SM CLR M03/M04 A3031 RMK AO2 SLP270 I1000 I6000 T10331044 11011 21039 53014

KPDX 231210Z 09006KT 9SM SCT009 OVC055 08/06 A3014 RMK AO2 T00830061

KPHL 231154Z 29011G19KT 10SM FEW045 SCT140 BKN250 03/M06 A2990 RMK AO2 SLP124 70007 T00281061 10033 20022 53035 $

KPHX 231151Z 10003KT 10SM SCT250 13/06 A3005 RMK AO2 SLP166 T01280056 10189 20122 55001

KPIT 231151Z 28007KT 10SM FEW029 M04/M08 A3016 RMK AO2 SLP235 70007 T10441078 11022 21056 53027 $

KSAN 231151Z 00000KT 10SM BKN017 BKN250 12/09 A3017 RMK AO2 SLP215 T01220089 10144 20122 55008

KSEA 231153Z 12004KT 10SM FEW030 BKN230 08/05 A3012 RMK AO2 SLP207 60000 70001 T00780050 10100 20072 51006

KSFO 231213Z 26004KT 7SM BKN014 12/10 A3013 RMK AO2 T01170100

KSLC 231154Z 19003KT 10SM BKN034 BKN043 06/04 A3009 RMK AO2 RAB04E13B38E51 SLP181 P0000 60002 70013 T00610044 10067 20061 55000

KSTL 231151Z 11006KT 10SM FEW150 BKN250 02/M02 A3028 RMK AO2 SLP256 T00221017 10067 20022 53016

KTPA 231153Z 07003KT 10SM CLR 13/10 A3018 RMK AO2 SLP219 T01330100 10133 20111 53022